INDIA METEOROLOGICAL DEPARTMENT, R.M.C. NEW DELHI
Dated:22 - 9 - 2017
METARS OF ALTERNATE AIRPORTS
Delhi      
VIDP 222030Z 03006KT 2200 BR BKN025 FEW035CB OVC080 24/23 Q1004 NOSIG=
Amritsar   
VIAR 222030Z 09004KT 3500 BR SCT040 SCT100 25/25 Q1006 NOSIG=
Lucknow    
VILK 221930Z VRB02KT 2500 BR SCT018 FEW030CB BKN090 26/26 Q1004=
Jaipur     
VIJP 222030Z 00000KT 3000 HZ SCT030 BKN090 27/21 Q1006 NOSIG=
Ahmedabad  
VAAH 222030Z 28003KT 4000 HZ FEW020 SCT080 27/24 Q1007 NOSIG=
Mumbai     
VABB 222030Z 00000KT 3500 HZ SCT020 SCT100 27/24 Q1008 NOSIG=